createdAt,value
2022-09-07T00:02:02.751Z,56.38
2022-09-07T00:04:30.489Z,56.38
2022-09-07T00:06:58.230Z,56.36
2022-09-07T00:09:25.949Z,56.57
2022-09-07T00:11:53.694Z,56.82
2022-09-07T00:14:21.515Z,56.55
2022-09-07T00:16:51.028Z,56.70
2022-09-07T00:19:18.781Z,56.68
2022-09-07T00:21:46.431Z,56.70
2022-09-07T00:24:14.221Z,56.71
2022-09-07T00:26:41.877Z,56.73
2022-09-07T00:29:09.607Z,56.84
2022-09-07T00:31:37.610Z,56.86
2022-09-07T00:34:06.783Z,56.85
2022-09-07T00:36:34.517Z,56.62
2022-09-07T00:39:02.656Z,56.67
2022-09-07T00:41:30.649Z,56.91
2022-09-07T00:43:59.475Z,56.77
2022-09-07T00:46:28.279Z,56.67
2022-09-07T00:48:58.180Z,56.76
2022-09-07T00:51:30.463Z,56.64
2022-09-07T00:54:01.697Z,56.74
2022-09-07T00:56:31.668Z,56.77
2022-09-07T00:58:59.996Z,56.88
2022-09-07T01:01:28.232Z,56.75
2022-09-07T01:03:58.548Z,56.71
2022-09-07T01:06:28.912Z,56.58
2022-09-07T01:08:57.659Z,56.92
2022-09-07T01:11:25.327Z,56.88
2022-09-07T01:13:54.061Z,56.75
2022-09-07T01:16:42.794Z,56.54
2022-09-07T01:19:19.084Z,56.92
2022-09-07T01:21:59.571Z,56.83
2022-09-07T01:24:36.516Z,56.97
2022-09-07T01:27:23.159Z,56.71
2022-09-07T01:29:56.712Z,56.94
2022-09-07T01:32:30.665Z,56.66
2022-09-07T01:34:58.800Z,57.09
2022-09-07T01:37:30.900Z,57.12
2022-09-07T01:40:04.110Z,57.07
2022-09-07T01:42:33.519Z,56.70
2022-09-07T01:45:03.375Z,57.01
2022-09-07T01:47:33.712Z,56.95
2022-09-07T01:50:06.198Z,56.81
2022-09-07T01:52:36.885Z,56.88
2022-09-07T01:55:07.953Z,56.82
2022-09-07T01:57:39.770Z,56.77
2022-09-07T02:00:10.351Z,57.04
2022-09-07T02:02:41.191Z,56.64
2022-09-07T02:05:11.424Z,56.96
2022-09-07T02:07:43.507Z,56.97
2022-09-07T02:10:15.173Z,56.95
2022-09-07T02:12:45.816Z,56.74
2022-09-07T02:15:17.816Z,56.88
2022-09-07T02:17:47.607Z,56.68
2022-09-07T02:20:20.770Z,56.88
2022-09-07T02:22:50.961Z,56.85
2022-09-07T02:25:21.658Z,56.94
2022-09-07T02:27:51.501Z,56.69
2022-09-07T02:30:20.623Z,56.66
2022-09-07T02:32:48.317Z,56.92
2022-09-07T02:35:16.243Z,56.75
2022-09-07T02:37:45.217Z,56.66
2022-09-07T02:40:13.181Z,56.48
2022-09-07T02:42:40.989Z,56.64
2022-09-07T02:45:10.645Z,56.75
2022-09-07T02:47:45.226Z,56.88
2022-09-07T02:50:23.765Z,56.79
2022-09-07T02:52:55.135Z,56.89
2022-09-07T02:55:28.053Z,56.84
2022-09-07T02:58:02.812Z,56.79
2022-09-07T03:00:33.016Z,56.84
2022-09-07T03:03:09.397Z,56.45
2022-09-07T03:05:41.065Z,56.86
2022-09-07T03:08:12.780Z,56.43
2022-09-07T03:10:40.667Z,56.50
2022-09-07T03:13:08.354Z,56.75
2022-09-07T03:15:36.086Z,56.47
2022-09-07T03:18:05.219Z,56.70
2022-09-07T03:20:32.939Z,56.53
2022-09-07T03:23:00.655Z,56.48
2022-09-07T03:25:28.344Z,56.83
2022-09-07T03:27:56.282Z,56.54
2022-09-07T03:30:24.088Z,56.63
2022-09-07T03:32:52.096Z,56.66
2022-09-07T03:35:21.387Z,56.64
2022-09-07T03:37:49.183Z,56.34
2022-09-07T03:40:16.947Z,56.56
2022-09-07T03:42:45.096Z,56.29
2022-09-07T03:45:12.853Z,56.29
2022-09-07T03:47:40.577Z,56.48
2022-09-07T03:50:08.756Z,56.42
2022-09-07T03:52:38.254Z,56.60
2022-09-07T03:55:06.339Z,56.75
2022-09-07T03:57:34.058Z,56.45
2022-09-07T04:00:02.569Z,56.41
2022-09-07T04:02:30.443Z,56.74
2022-09-07T04:04:58.152Z,56.48
2022-09-07T04:07:27.298Z,56.64
2022-09-07T04:09:56.452Z,56.75
2022-09-07T04:12:26.103Z,56.75
2022-09-07T04:14:53.824Z,56.51
2022-09-07T04:17:21.585Z,56.71
2022-09-07T04:19:49.281Z,56.84
2022-09-07T04:22:16.994Z,56.89
2022-09-07T04:24:44.735Z,56.89
2022-09-07T04:27:13.731Z,56.52
2022-09-07T04:29:41.424Z,56.69
2022-09-07T04:32:11.426Z,56.69
2022-09-07T04:34:42.843Z,56.77
2022-09-07T04:37:10.550Z,56.67
2022-09-07T04:39:38.982Z,56.81
2022-09-07T04:42:06.838Z,56.97
2022-09-07T04:44:36.061Z,56.94
2022-09-07T04:47:03.711Z,57.15
2022-09-07T04:49:31.458Z,56.68
2022-09-07T04:51:59.131Z,56.89
2022-09-07T04:54:27.535Z,57.00
2022-09-07T04:56:55.227Z,57.35
2022-09-07T04:59:22.959Z,57.21
2022-09-07T05:01:52.045Z,57.21
2022-09-07T05:04:19.808Z,57.04
2022-09-07T05:06:49.912Z,57.44
2022-09-07T05:09:17.661Z,57.34
2022-09-07T05:11:45.403Z,57.46
2022-09-07T05:14:13.241Z,57.21
2022-09-07T05:16:41.026Z,57.34
2022-09-07T05:19:13.130Z,57.17
2022-09-07T05:21:40.999Z,57.28
2022-09-07T05:24:08.732Z,56.94
2022-09-07T05:26:38.397Z,57.25
2022-09-07T05:31:55.348Z,57.33
2022-09-07T05:36:55.517Z,57.22
2022-09-07T05:39:23.299Z,57.33
2022-09-07T05:41:51.062Z,57.33
2022-09-07T05:47:06.831Z,57.01
2022-09-07T05:49:35.915Z,57.19
2022-09-07T05:52:03.820Z,56.96
2022-09-07T05:54:31.584Z,57.45
2022-09-07T05:56:59.307Z,57.14
2022-09-07T05:59:27.105Z,57.21
2022-09-07T06:01:54.925Z,57.40
2022-09-07T06:04:22.770Z,57.09
2022-09-07T06:07:20.202Z,57.21
2022-09-07T06:12:28.083Z,57.48
2022-09-07T06:14:55.789Z,58.18
2022-09-07T06:17:23.602Z,58.14
2022-09-07T06:19:51.353Z,58.71
2022-09-07T06:22:20.443Z,58.77
2022-09-07T06:24:48.216Z,59.36
2022-09-07T06:27:15.888Z,59.46
2022-09-07T06:29:43.618Z,59.31
2022-09-07T06:34:59.161Z,59.28
2022-09-07T06:37:28.256Z,59.67
2022-09-07T06:39:56.134Z,59.49
2022-09-07T06:42:23.908Z,59.36
2022-09-07T06:44:51.654Z,59.77
2022-09-07T06:47:19.452Z,59.49
2022-09-07T06:49:47.168Z,59.57
2022-09-07T06:52:14.900Z,59.84
2022-09-07T06:54:59.610Z,59.85
2022-09-07T06:57:28.003Z,59.87
2022-09-07T06:59:55.680Z,59.68
2022-09-07T07:02:23.341Z,60.11
2022-09-07T07:04:51.201Z,59.71
2022-09-07T07:07:18.937Z,60.08
2022-09-07T07:09:50.833Z,60.06
2022-09-07T07:14:45.384Z,59.92
2022-09-07T07:17:13.220Z,60.04
2022-09-07T07:19:40.940Z,59.77
2022-09-07T07:22:23.879Z,59.74
2022-09-07T07:24:57.773Z,60.06
2022-09-07T07:27:25.501Z,60.20
2022-09-07T07:29:53.917Z,60.24
2022-09-07T07:32:21.695Z,59.96
2022-09-07T07:34:51.577Z,60.02
2022-09-07T07:37:28.034Z,60.23
2022-09-07T07:42:45.108Z,60.26
2022-09-07T07:48:02.032Z,60.41
2022-09-07T07:50:31.849Z,60.45
2022-09-07T07:55:49.706Z,60.63
2022-09-07T07:58:17.799Z,60.71
2022-09-07T08:01:01.010Z,60.88
2022-09-07T08:03:28.921Z,60.85
2022-09-07T08:05:56.851Z,61.16
2022-09-07T08:08:24.749Z,61.06
2022-09-07T08:10:53.767Z,61.31
2022-09-07T08:13:21.738Z,61.41
2022-09-07T08:15:49.537Z,61.33
2022-09-07T08:18:17.798Z,61.56
2022-09-07T08:20:48.492Z,61.31
2022-09-07T08:23:16.343Z,61.24
2022-09-07T08:26:07.982Z,61.34
2022-09-07T08:28:38.454Z,61.88
2022-09-07T08:31:06.350Z,62.00
2022-09-07T08:33:35.444Z,61.53
2022-09-07T08:36:04.109Z,61.58
2022-09-07T08:38:32.795Z,61.63
2022-09-07T08:41:01.338Z,61.96
2022-09-07T08:43:39.528Z,61.87
2022-09-07T08:46:15.110Z,62.21
2022-09-07T08:48:43.819Z,62.05
2022-09-07T08:51:14.068Z,62.12
2022-09-07T08:53:44.813Z,62.48
2022-09-07T08:56:17.132Z,62.21
2022-09-07T08:58:49.161Z,62.79
2022-09-07T09:01:35.704Z,62.81
2022-09-07T09:04:21.224Z,62.94
2022-09-07T09:07:01.585Z,62.99
2022-09-07T09:09:34.257Z,63.05
2022-09-07T09:12:08.821Z,62.93
2022-09-07T09:14:43.842Z,62.52
2022-09-07T09:17:19.465Z,62.39
2022-09-07T09:19:52.763Z,62.10
2022-09-07T09:22:21.717Z,61.67
2022-09-07T09:24:50.442Z,61.60
2022-09-07T09:27:18.143Z,61.68
2022-09-07T09:29:45.863Z,61.88
2022-09-07T09:32:34.630Z,61.76
2022-09-07T09:35:04.012Z,61.88
2022-09-07T09:37:35.075Z,61.75
2022-09-07T09:40:03.317Z,61.82
2022-09-07T09:42:32.861Z,62.36
2022-09-07T09:45:03.950Z,62.28
2022-09-07T09:47:35.997Z,61.86
2022-09-07T09:50:06.314Z,61.80
2022-09-07T09:52:44.990Z,61.47
2022-09-07T09:55:40.894Z,61.41
2022-09-07T10:01:24.242Z,61.17
2022-09-07T10:06:26.667Z,60.86
2022-09-07T10:08:57.325Z,60.68
2022-09-07T10:14:29.875Z,60.64
2022-09-07T10:16:58.218Z,60.68
2022-09-07T10:19:33.811Z,60.25
2022-09-07T10:22:02.763Z,60.52
2022-09-07T10:24:35.654Z,60.28
2022-09-07T10:27:19.592Z,60.47
2022-09-07T10:29:47.400Z,60.18
2022-09-07T10:32:21.138Z,60.10
2022-09-07T10:34:56.051Z,60.10
2022-09-07T10:37:30.912Z,59.97
2022-09-07T10:40:03.713Z,59.66
2022-09-07T10:42:33.965Z,60.16
2022-09-07T10:45:05.409Z,59.92
2022-09-07T10:47:39.087Z,59.98
2022-09-07T10:50:22.534Z,59.85
2022-09-07T10:52:56.848Z,59.54
2022-09-07T10:55:29.942Z,59.78
2022-09-07T10:58:03.594Z,59.63
2022-09-07T11:00:33.974Z,59.71
2022-09-07T11:03:26.144Z,59.54
2022-09-07T11:06:02.115Z,59.57
2022-09-07T11:09:15.747Z,59.39
2022-09-07T11:14:17.486Z,59.36
2022-09-07T11:16:50.882Z,59.30
2022-09-07T11:19:37.265Z,59.09
2022-09-07T11:22:17.043Z,59.11
2022-09-07T11:24:47.483Z,58.92
2022-09-07T11:27:19.883Z,59.04
2022-09-07T11:29:50.312Z,58.83
2022-09-07T11:32:20.203Z,58.89
2022-09-07T11:34:52.170Z,59.01
2022-09-07T11:37:24.368Z,58.79
2022-09-07T11:39:54.306Z,58.64
2022-09-07T11:45:15.174Z,58.67
2022-09-07T11:47:45.010Z,58.66
2022-09-07T11:50:16.660Z,58.68
2022-09-07T11:52:53.552Z,59.05
2022-09-07T11:55:25.622Z,59.18
2022-09-07T11:58:01.215Z,59.09
2022-09-07T12:00:33.201Z,59.09
2022-09-07T12:03:05.574Z,58.85
2022-09-07T12:05:42.535Z,59.16
2022-09-07T12:08:20.251Z,59.08
2022-09-07T12:10:54.855Z,58.86
2022-09-07T12:13:32.305Z,58.89
2022-09-07T12:16:03.030Z,58.93
2022-09-07T12:18:44.608Z,58.71
2022-09-07T12:21:27.184Z,58.74
2022-09-07T12:23:56.277Z,58.67
2022-09-07T12:26:50.817Z,58.82
2022-09-07T12:29:25.713Z,58.86
2022-09-07T12:31:58.633Z,58.98
2022-09-07T12:34:54.079Z,58.53
2022-09-07T12:37:36.628Z,58.47
2022-09-07T12:40:23.125Z,58.38
2022-09-07T12:43:12.209Z,58.47
2022-09-07T12:45:58.098Z,58.24
2022-09-07T12:48:33.954Z,58.48
2022-09-07T12:51:06.212Z,58.57
2022-09-07T12:53:38.194Z,58.40
2022-09-07T12:56:19.697Z,58.63
2022-09-07T12:58:54.165Z,58.21
2022-09-07T13:01:28.717Z,58.13
2022-09-07T13:04:17.276Z,57.99
2022-09-07T13:07:02.625Z,57.99
2022-09-07T13:09:32.308Z,57.89
2022-09-07T13:12:00.903Z,58.04
2022-09-07T13:14:30.483Z,57.90
2022-09-07T13:17:31.149Z,57.99
2022-09-07T13:20:06.636Z,57.77
2022-09-07T13:22:53.535Z,57.79
2022-09-07T13:25:38.931Z,57.87
2022-09-07T13:28:14.905Z,57.54
2022-09-07T13:30:50.890Z,57.64
2022-09-07T13:33:37.271Z,57.50
2022-09-07T13:36:06.299Z,57.60
2022-09-07T13:38:36.413Z,57.51
2022-09-07T13:41:07.328Z,57.66
2022-09-07T13:43:35.833Z,57.36
2022-09-07T13:46:09.091Z,57.60
2022-09-07T13:48:37.998Z,57.37
2022-09-07T13:51:09.680Z,57.31
2022-09-07T13:53:46.520Z,57.20
2022-09-07T13:56:17.816Z,57.43
2022-09-07T13:58:48.382Z,57.60
2022-09-07T14:01:19.709Z,58.23
2022-09-07T14:03:55.958Z,57.39
2022-09-07T14:06:31.477Z,55.79
2022-09-07T14:09:01.025Z,55.09
2022-09-07T14:11:29.625Z,55.03
2022-09-07T14:14:10.570Z,54.86
2022-09-07T14:16:39.921Z,55.18
2022-09-07T14:19:11.258Z,54.92
2022-09-07T14:21:39.182Z,55.60
2022-09-07T14:24:07.525Z,56.02
2022-09-07T14:26:35.430Z,56.35
2022-09-07T14:29:03.135Z,56.30
2022-09-07T14:31:32.351Z,56.16
2022-09-07T14:34:01.914Z,55.90
2022-09-07T14:36:43.929Z,56.34
2022-09-07T14:39:25.829Z,55.85
2022-09-07T14:42:03.768Z,56.13
2022-09-07T14:44:33.565Z,56.25
2022-09-07T14:47:03.025Z,56.16
2022-09-07T14:49:32.142Z,56.15
2022-09-07T14:52:00.785Z,56.04
2022-09-07T14:54:30.834Z,56.01
2022-09-07T14:57:01.092Z,55.88
2022-09-07T14:59:33.972Z,55.91
2022-09-07T15:02:22.069Z,55.72
2022-09-07T15:05:10.918Z,55.66
2022-09-07T15:07:39.252Z,55.99
2022-09-07T15:10:16.605Z,55.91
2022-09-07T15:12:44.482Z,55.72
2022-09-07T15:15:21.839Z,55.54
2022-09-07T15:17:49.815Z,55.60
2022-09-07T15:20:35.793Z,55.56
2022-09-07T15:23:04.932Z,55.54
2022-09-07T15:25:33.015Z,55.61
2022-09-07T15:28:00.935Z,55.58
2022-09-07T15:30:28.710Z,55.47
2022-09-07T15:32:57.337Z,55.31
2022-09-07T15:35:25.394Z,54.67
2022-09-07T15:38:02.875Z,54.03
2022-09-07T15:40:37.445Z,53.23
2022-09-07T15:43:16.492Z,53.60
2022-09-07T15:45:48.113Z,52.67
2022-09-07T15:48:25.251Z,52.70
2022-09-07T15:51:00.985Z,52.21
2022-09-07T15:56:20.317Z,52.37
2022-09-07T15:58:52.475Z,51.59
2022-09-07T16:04:08.219Z,50.91
2022-09-07T16:06:36.020Z,50.91
2022-09-07T16:09:06.131Z,51.02
2022-09-07T16:11:35.187Z,51.87
2022-09-07T16:14:03.813Z,51.88
2022-09-07T16:19:21.136Z,52.36
2022-09-07T16:21:49.003Z,53.49
2022-09-07T16:24:18.392Z,54.21
2022-09-07T16:26:46.132Z,52.54
2022-09-07T16:29:13.852Z,51.81
2022-09-07T16:32:44.060Z,51.14
2022-09-07T16:34:30.070Z,50.76
2022-09-07T16:36:57.959Z,49.71
2022-09-07T16:39:27.108Z,50.02
2022-09-07T16:41:54.976Z,51.65
2022-09-07T16:44:22.950Z,51.61
2022-09-07T16:46:50.802Z,50.71
2022-09-07T16:49:19.679Z,50.81
2022-09-07T16:51:47.438Z,50.25
2022-09-07T16:54:15.846Z,50.33
2022-09-07T16:56:44.925Z,50.58
2022-09-07T16:59:16.102Z,50.63
2022-09-07T17:01:44.000Z,50.81
2022-09-07T17:04:11.960Z,50.85
2022-09-07T17:06:40.265Z,50.94
2022-09-07T17:09:08.192Z,50.74
2022-09-07T17:11:36.983Z,50.87
2022-09-07T17:14:06.776Z,50.95
2022-09-07T17:16:36.206Z,50.83
2022-09-07T17:21:53.608Z,50.80
2022-09-07T17:24:21.687Z,50.63
2022-09-07T17:26:49.426Z,50.78
2022-09-07T17:29:18.613Z,50.57
2022-09-07T17:34:33.969Z,50.64
2022-09-07T17:37:01.660Z,50.74
2022-09-07T17:39:29.571Z,51.21
2022-09-07T17:41:57.811Z,51.23
2022-09-07T17:44:30.692Z,51.51
2022-09-07T17:46:59.864Z,51.69
2022-09-07T17:49:29.376Z,51.50
2022-09-07T17:51:58.509Z,51.79
2022-09-07T17:54:26.215Z,51.85
2022-09-07T17:56:54.158Z,51.68
2022-09-07T18:02:13.538Z,52.38
2022-09-07T18:04:41.358Z,52.33
2022-09-07T18:07:09.101Z,52.84
2022-09-07T18:09:36.812Z,53.01
2022-09-07T18:12:04.845Z,52.88
2022-09-07T18:14:32.570Z,52.80
2022-09-07T18:17:00.330Z,52.76
2022-09-07T18:19:29.488Z,52.81
2022-09-07T18:21:57.191Z,52.80
2022-09-07T18:24:25.469Z,53.17
2022-09-07T18:26:54.268Z,53.57
2022-09-07T18:29:33.477Z,53.87
2022-09-07T18:32:03.103Z,54.31
2022-09-07T18:34:32.349Z,54.51
2022-09-07T18:37:00.125Z,54.44
2022-09-07T18:39:28.011Z,54.26
2022-09-07T18:41:56.242Z,54.16
2022-09-07T18:47:21.083Z,53.78
2022-09-07T18:49:51.386Z,54.18
2022-09-07T18:55:08.528Z,54.25
2022-09-07T18:57:36.700Z,54.17
2022-09-07T19:00:05.128Z,54.29
2022-09-07T19:02:33.517Z,54.39
2022-09-07T19:07:50.385Z,54.34
2022-09-07T19:10:18.421Z,54.55
2022-09-07T19:12:46.532Z,54.14
2022-09-07T19:15:14.577Z,54.62
2022-09-07T19:17:42.311Z,54.26
2022-09-07T19:20:11.837Z,54.49
2022-09-07T19:22:39.731Z,54.28
2022-09-07T19:25:07.696Z,54.34
2022-09-07T19:27:35.618Z,54.26
2022-09-07T19:30:03.386Z,53.96
2022-09-07T19:32:31.105Z,54.04
2022-09-07T19:34:58.844Z,54.08
2022-09-07T19:37:29.880Z,54.14
2022-09-07T19:39:58.129Z,53.95
2022-09-07T19:42:26.556Z,54.26
2022-09-07T19:44:54.943Z,53.93
2022-09-07T19:47:23.225Z,54.11
2022-09-07T19:49:52.247Z,54.09
2022-09-07T19:52:19.947Z,54.22
2022-09-07T19:54:49.052Z,54.06
2022-09-07T19:57:16.706Z,54.37
2022-09-07T19:59:45.634Z,54.14
2022-09-07T20:02:13.405Z,54.34
2022-09-07T20:04:41.116Z,54.52
2022-09-07T20:07:08.814Z,54.45
2022-09-07T20:09:36.872Z,54.66
2022-09-07T20:12:08.052Z,54.85
2022-09-07T20:14:35.778Z,55.32
2022-09-07T20:17:03.723Z,55.58
2022-09-07T20:19:31.517Z,55.81
2022-09-07T20:21:59.184Z,55.64
2022-09-07T20:24:26.879Z,55.19
2022-09-07T20:26:54.630Z,55.35
2022-09-07T20:29:28.497Z,55.29
2022-09-07T20:31:57.180Z,55.28
2022-09-07T20:34:24.897Z,55.67
2022-09-07T20:36:52.980Z,55.47
2022-09-07T20:39:21.302Z,55.59
2022-09-07T20:41:49.377Z,55.39
2022-09-07T20:44:17.501Z,55.38
2022-09-07T20:46:46.683Z,55.41
2022-09-07T20:49:14.439Z,55.13
2022-09-07T20:51:42.246Z,55.23
2022-09-07T20:54:10.117Z,55.15
2022-09-07T20:56:37.841Z,55.17
2022-09-07T20:59:05.526Z,55.11
2022-09-07T21:01:34.978Z,54.92
2022-09-07T21:04:06.202Z,54.88
2022-09-07T21:06:34.061Z,54.82
2022-09-07T21:09:02.026Z,55.01
2022-09-07T21:11:33.821Z,55.06
2022-09-07T21:14:02.610Z,54.90
2022-09-07T21:16:30.306Z,54.62
2022-09-07T21:18:58.888Z,54.65
2022-09-07T21:21:28.326Z,54.96
2022-09-07T21:23:56.760Z,54.77
2022-09-07T21:26:24.472Z,54.98
2022-09-07T21:28:56.113Z,54.80
2022-09-07T21:31:23.926Z,54.67
2022-09-07T21:33:54.402Z,54.92
2022-09-07T21:36:22.168Z,54.75
2022-09-07T21:38:51.276Z,54.61
2022-09-07T21:41:19.769Z,54.61
2022-09-07T21:43:47.573Z,54.58
2022-09-07T21:46:17.249Z,54.78
2022-09-07T21:48:45.715Z,54.85
2022-09-07T21:51:13.966Z,54.83
2022-09-07T21:53:41.882Z,54.85
2022-09-07T21:56:12.794Z,54.81
2022-09-07T21:58:40.871Z,54.67
2022-09-07T22:01:12.494Z,54.74
2022-09-07T22:03:40.725Z,54.49
2022-09-07T22:06:08.695Z,54.69
2022-09-07T22:08:36.752Z,54.73
2022-09-07T22:11:05.418Z,54.68
2022-09-07T22:13:34.941Z,54.67
2022-09-07T22:16:03.482Z,54.72
2022-09-07T22:18:31.254Z,54.92
2022-09-07T22:21:02.472Z,54.63
2022-09-07T22:23:30.906Z,54.79
2022-09-07T22:25:58.608Z,54.87
2022-09-07T22:28:26.557Z,54.49
2022-09-07T22:30:55.766Z,54.80
2022-09-07T22:33:23.658Z,54.48
2022-09-07T22:35:51.274Z,54.69
2022-09-07T22:38:19.013Z,54.68
2022-09-07T22:40:46.658Z,54.47
2022-09-07T22:43:14.339Z,54.66
2022-09-07T22:45:41.976Z,54.70
2022-09-07T22:48:11.082Z,54.53
2022-09-07T22:50:38.826Z,54.49
2022-09-07T22:53:06.531Z,54.69
2022-09-07T22:55:38.945Z,54.63
2022-09-07T22:58:06.634Z,54.26
2022-09-07T23:00:36.337Z,54.47
2022-09-07T23:03:04.989Z,54.63
2022-09-07T23:05:38.101Z,54.63
2022-09-07T23:08:06.090Z,54.51
2022-09-07T23:10:34.863Z,54.49
2022-09-07T23:13:02.534Z,54.32
2022-09-07T23:15:30.404Z,54.45
2022-09-07T23:17:58.041Z,54.36
2022-09-07T23:20:25.844Z,54.24
2022-09-07T23:22:54.824Z,54.42
2022-09-07T23:25:22.680Z,54.38
2022-09-07T23:27:50.322Z,54.38
2022-09-07T23:30:17.999Z,54.57
2022-09-07T23:32:45.661Z,54.59
2022-09-07T23:35:16.586Z,54.48
2022-09-07T23:37:44.598Z,54.42
2022-09-07T23:40:13.716Z,54.51
2022-09-07T23:42:41.524Z,54.20
2022-09-07T23:45:09.791Z,54.50
2022-09-07T23:47:37.516Z,54.39
2022-09-07T23:50:05.608Z,54.55
2022-09-07T23:52:33.341Z,54.37
2022-09-07T23:55:01.007Z,54.58
2022-09-07T23:57:30.100Z,54.38
2022-09-07T23:59:57.809Z,54.64
